KPOC/POC METAR and TAF weather

Enter ICAO airport designator
Station Type Date Time Source
KPOC METAR 2022/01/26 14:47 UTC NOAA

KPOC 261447Z 00000KT 10SM CLR 05/M03 A3012


Station Type Date Time Source
KPOC Decoded METAR 2022/01/26 14:47 UTC NOAA

La Verne / Brackett, CA, United States (KPOC) 34-06N 117-47W
Jan 26, 2022 - 09:47 AM EST / 2022.01.26 1447 UTC
Wind: Calm:0
Visibility: 10 mile(s):0
Sky conditions: clear
Temperature: 41 F (5 C)
Dew Point: 26 F (-3 C)
Relative Humidity: 56%
Pressure (altimeter): 30.12 in. Hg (1019 hPa)
ob: KPOC 261447Z 00000KT 10SM CLR 05/M03 A3012
cycle: 15

Station Type Date Time Source
KPOC TAF UTC NOAA

Error!

Example: see airport list